sensor_id;sensor_type;location;lat;lon;timestamp;P1;durP1;ratioP1;P2;durP2;ratioP2
16346;SDS011;8283;48.504;13.734;2022-12-26T00:01:40;4.65;;;1.92;;
16346;SDS011;8283;48.504;13.734;2022-12-26T00:04:26;4.40;;;2.10;;
16346;SDS011;8283;48.504;13.734;2022-12-26T00:07:11;4.22;;;2.42;;
16346;SDS011;8283;48.504;13.734;2022-12-26T00:09:55;4.22;;;2.13;;
16346;SDS011;8283;48.504;13.734;2022-12-26T00:12:40;2.45;;;1.83;;
16346;SDS011;8283;48.504;13.734;2022-12-26T00:15:24;4.07;;;2.10;;
16346;SDS011;8283;48.504;13.734;2022-12-26T00:18:09;3.50;;;1.70;;
16346;SDS011;8283;48.504;13.734;2022-12-26T00:20:54;5.00;;;1.80;;
16346;SDS011;8283;48.504;13.734;2022-12-26T00:23:39;2.38;;;2.05;;
16346;SDS011;8283;48.504;13.734;2022-12-26T00:26:26;4.45;;;1.80;;
16346;SDS011;8283;48.504;13.734;2022-12-26T00:29:13;1.90;;;1.70;;
16346;SDS011;8283;48.504;13.734;2022-12-26T00:31:57;2.60;;;1.83;;
16346;SDS011;8283;48.504;13.734;2022-12-26T00:34:41;4.68;;;2.00;;
16346;SDS011;8283;48.504;13.734;2022-12-26T00:37:26;3.13;;;1.65;;
16346;SDS011;8283;48.504;13.734;2022-12-26T00:40:10;1.95;;;1.80;;
16346;SDS011;8283;48.504;13.734;2022-12-26T00:42:55;2.35;;;1.90;;
16346;SDS011;8283;48.504;13.734;2022-12-26T00:45:42;6.35;;;1.70;;
16346;SDS011;8283;48.504;13.734;2022-12-26T00:48:27;2.30;;;1.80;;
16346;SDS011;8283;48.504;13.734;2022-12-26T00:51:12;11.57;;;1.85;;
16346;SDS011;8283;48.504;13.734;2022-12-26T00:53:57;2.92;;;1.52;;
16346;SDS011;8283;48.504;13.734;2022-12-26T00:56:41;3.67;;;1.70;;
16346;SDS011;8283;48.504;13.734;2022-12-26T00:59:26;1.98;;;1.77;;
16346;SDS011;8283;48.504;13.734;2022-12-26T01:02:10;6.13;;;1.88;;
16346;SDS011;8283;48.504;13.734;2022-12-26T01:05:14;4.93;;;1.88;;
16346;SDS011;8283;48.504;13.734;2022-12-26T01:07:58;4.90;;;1.65;;
16346;SDS011;8283;48.504;13.734;2022-12-26T01:10:43;2.92;;;1.83;;
16346;SDS011;8283;48.504;13.734;2022-12-26T01:13:29;1.92;;;1.50;;
16346;SDS011;8283;48.504;13.734;2022-12-26T01:16:14;1.85;;;1.70;;
16346;SDS011;8283;48.504;13.734;2022-12-26T01:18:58;2.25;;;1.70;;
16346;SDS011;8283;48.504;13.734;2022-12-26T01:21:42;6.13;;;1.92;;
16346;SDS011;8283;48.504;13.734;2022-12-26T01:24:27;7.85;;;1.90;;
16346;SDS011;8283;48.504;13.734;2022-12-26T01:27:11;1.98;;;1.70;;
16346;SDS011;8283;48.504;13.734;2022-12-26T01:29:56;8.00;;;1.92;;
16346;SDS011;8283;48.504;13.734;2022-12-26T01:32:41;3.47;;;1.83;;
16346;SDS011;8283;48.504;13.734;2022-12-26T01:35:25;7.82;;;1.73;;
16346;SDS011;8283;48.504;13.734;2022-12-26T01:38:09;5.22;;;1.75;;
16346;SDS011;8283;48.504;13.734;2022-12-26T01:40:53;2.80;;;1.75;;
16346;SDS011;8283;48.504;13.734;2022-12-26T01:43:57;3.35;;;1.38;;
16346;SDS011;8283;48.504;13.734;2022-12-26T01:46:42;7.05;;;1.83;;
16346;SDS011;8283;48.504;13.734;2022-12-26T01:49:30;2.08;;;1.88;;
16346;SDS011;8283;48.504;13.734;2022-12-26T01:52:24;5.22;;;1.90;;
16346;SDS011;8283;48.504;13.734;2022-12-26T01:55:15;2.22;;;1.77;;
16346;SDS011;8283;48.504;13.734;2022-12-26T01:58:05;2.28;;;1.80;;
16346;SDS011;8283;48.504;13.734;2022-12-26T02:00:53;2.92;;;1.80;;
16346;SDS011;8283;48.504;13.734;2022-12-26T02:03:38;1.50;;;1.40;;
16346;SDS011;8283;48.504;13.734;2022-12-26T02:06:44;2.47;;;1.60;;
16346;SDS011;8283;48.504;13.734;2022-12-26T02:09:28;3.33;;;1.67;;
16346;SDS011;8283;48.504;13.734;2022-12-26T02:12:18;2.90;;;1.90;;
16346;SDS011;8283;48.504;13.734;2022-12-26T02:15:08;1.98;;;1.77;;
16346;SDS011;8283;48.504;13.734;2022-12-26T02:17:54;9.35;;;2.10;;
16346;SDS011;8283;48.504;13.734;2022-12-26T02:23:53;7.20;;;1.83;;
16346;SDS011;8283;48.504;13.734;2022-12-26T02:40:03;2.72;;;1.83;;
16346;SDS011;8283;48.504;13.734;2022-12-26T02:45:31;4.90;;;2.17;;
16346;SDS011;8283;48.504;13.734;2022-12-26T02:48:43;4.80;;;2.45;;
16346;SDS011;8283;48.504;13.734;2022-12-26T02:54:59;2.75;;;1.98;;
16346;SDS011;8283;48.504;13.734;2022-12-26T03:01:19;5.43;;;1.85;;
16346;SDS011;8283;48.504;13.734;2022-12-26T03:04:35;2.10;;;1.90;;
16346;SDS011;8283;48.504;13.734;2022-12-26T03:07:40;2.30;;;2.10;;
16346;SDS011;8283;48.504;13.734;2022-12-26T03:10:45;2.40;;;1.95;;
16346;SDS011;8283;48.504;13.734;2022-12-26T03:13:52;2.10;;;1.90;;
16346;SDS011;8283;48.504;13.734;2022-12-26T03:16:38;6.40;;;1.50;;
16346;SDS011;8283;48.504;13.734;2022-12-26T03:20:28;3.40;;;1.92;;
16346;SDS011;8283;48.504;13.734;2022-12-26T03:22:59;5.22;;;1.98;;
16346;SDS011;8283;48.504;13.734;2022-12-26T03:25:49;3.53;;;1.83;;
16346;SDS011;8283;48.504;13.734;2022-12-26T03:28:59;3.63;;;1.70;;
16346;SDS011;8283;48.504;13.734;2022-12-26T03:32:04;6.43;;;2.15;;
16346;SDS011;8283;48.504;13.734;2022-12-26T03:34:51;2.70;;;1.90;;
16346;SDS011;8283;48.504;13.734;2022-12-26T03:37:41;2.20;;;1.80;;
16346;SDS011;8283;48.504;13.734;2022-12-26T03:40:57;3.70;;;1.70;;
16346;SDS011;8283;48.504;13.734;2022-12-26T03:44:51;3.92;;;1.77;;
16346;SDS011;8283;48.504;13.734;2022-12-26T03:50:56;7.38;;;2.25;;
16346;SDS011;8283;48.504;13.734;2022-12-26T03:54:13;2.75;;;2.00;;
16346;SDS011;8283;48.504;13.734;2022-12-26T04:00:37;2.00;;;1.75;;
16346;SDS011;8283;48.504;13.734;2022-12-26T04:04:04;3.08;;;1.80;;
16346;SDS011;8283;48.504;13.734;2022-12-26T04:07:11;2.97;;;1.95;;
16346;SDS011;8283;48.504;13.734;2022-12-26T04:10:20;5.80;;;2.10;;
16346;SDS011;8283;48.504;13.734;2022-12-26T04:13:35;4.15;;;1.92;;
16346;SDS011;8283;48.504;13.734;2022-12-26T04:17:02;6.05;;;2.10;;
16346;SDS011;8283;48.504;13.734;2022-12-26T04:23:17;2.72;;;1.85;;
16346;SDS011;8283;48.504;13.734;2022-12-26T04:29:39;1.98;;;1.77;;
16346;SDS011;8283;48.504;13.734;2022-12-26T04:32:45;2.38;;;2.13;;
16346;SDS011;8283;48.504;13.734;2022-12-26T04:35:52;2.90;;;2.55;;
16346;SDS011;8283;48.504;13.734;2022-12-26T04:39:01;5.55;;;1.98;;
16346;SDS011;8283;48.504;13.734;2022-12-26T04:42:07;3.50;;;2.08;;
16346;SDS011;8283;48.504;13.734;2022-12-26T04:45:12;2.53;;;2.28;;
16346;SDS011;8283;48.504;13.734;2022-12-26T04:47:57;2.42;;;1.88;;
16346;SDS011;8283;48.504;13.734;2022-12-26T04:51:01;3.97;;;2.50;;
16346;SDS011;8283;48.504;13.734;2022-12-26T04:53:45;4.20;;;2.35;;
16346;SDS011;8283;48.504;13.734;2022-12-26T04:56:29;2.75;;;2.03;;
16346;SDS011;8283;48.504;13.734;2022-12-26T04:59:13;3.08;;;2.08;;
16346;SDS011;8283;48.504;13.734;2022-12-26T05:01:58;16.85;;;9.52;;
16346;SDS011;8283;48.504;13.734;2022-12-26T05:05:01;47.47;;;21.50;;
16346;SDS011;8283;48.504;13.734;2022-12-26T05:08:04;17.40;;;6.95;;
16346;SDS011;8283;48.504;13.734;2022-12-26T05:11:07;18.00;;;7.32;;
16346;SDS011;8283;48.504;13.734;2022-12-26T05:13:52;5.70;;;3.42;;
16346;SDS011;8283;48.504;13.734;2022-12-26T05:16:38;3.88;;;2.80;;
16346;SDS011;8283;48.504;13.734;2022-12-26T05:19:41;4.70;;;2.60;;
16346;SDS011;8283;48.504;13.734;2022-12-26T05:22:46;6.90;;;2.92;;
16346;SDS011;8283;48.504;13.734;2022-12-26T05:25:49;7.97;;;4.97;;
16346;SDS011;8283;48.504;13.734;2022-12-26T05:28:58;7.68;;;3.70;;
16346;SDS011;8283;48.504;13.734;2022-12-26T05:31:43;3.15;;;2.58;;
16346;SDS011;8283;48.504;13.734;2022-12-26T05:34:27;4.68;;;2.70;;
16346;SDS011;8283;48.504;13.734;2022-12-26T05:37:12;4.45;;;3.45;;
16346;SDS011;8283;48.504;13.734;2022-12-26T05:39:56;4.05;;;3.17;;
16346;SDS011;8283;48.504;13.734;2022-12-26T05:42:41;7.75;;;3.90;;
16346;SDS011;8283;48.504;13.734;2022-12-26T05:45:25;3.03;;;2.45;;
16346;SDS011;8283;48.504;13.734;2022-12-26T05:48:10;6.03;;;2.13;;
16346;SDS011;8283;48.504;13.734;2022-12-26T05:50:58;2.63;;;2.13;;
16346;SDS011;8283;48.504;13.734;2022-12-26T05:53:46;3.08;;;2.10;;
16346;SDS011;8283;48.504;13.734;2022-12-26T05:56:31;4.97;;;2.15;;
16346;SDS011;8283;48.504;13.734;2022-12-26T05:59:15;3.63;;;2.50;;
16346;SDS011;8283;48.504;13.734;2022-12-26T06:01:59;3.15;;;2.58;;
16346;SDS011;8283;48.504;13.734;2022-12-26T06:04:43;2.70;;;2.45;;
16346;SDS011;8283;48.504;13.734;2022-12-26T06:07:28;4.93;;;2.13;;
16346;SDS011;8283;48.504;13.734;2022-12-26T06:10:13;2.83;;;2.25;;
16346;SDS011;8283;48.504;13.734;2022-12-26T06:12:58;3.58;;;2.80;;
16346;SDS011;8283;48.504;13.734;2022-12-26T06:15:44;3.05;;;2.35;;
16346;SDS011;8283;48.504;13.734;2022-12-26T06:18:28;2.45;;;2.00;;
16346;SDS011;8283;48.504;13.734;2022-12-26T06:21:13;2.38;;;1.80;;
16346;SDS011;8283;48.504;13.734;2022-12-26T06:24:00;2.40;;;1.95;;
16346;SDS011;8283;48.504;13.734;2022-12-26T06:26:44;2.13;;;1.92;;
16346;SDS011;8283;48.504;13.734;2022-12-26T06:29:29;2.83;;;2.05;;
16346;SDS011;8283;48.504;13.734;2022-12-26T06:32:14;3.03;;;2.53;;
16346;SDS011;8283;48.504;13.734;2022-12-26T06:34:58;2.45;;;1.90;;
16346;SDS011;8283;48.504;13.734;2022-12-26T06:37:42;3.40;;;2.95;;
16346;SDS011;8283;48.504;13.734;2022-12-26T06:40:26;3.08;;;2.70;;
16346;SDS011;8283;48.504;13.734;2022-12-26T06:43:11;3.75;;;2.60;;
16346;SDS011;8283;48.504;13.734;2022-12-26T06:45:56;4.50;;;2.05;;
16346;SDS011;8283;48.504;13.734;2022-12-26T06:48:41;2.33;;;1.92;;
16346;SDS011;8283;48.504;13.734;2022-12-26T06:51:26;2.78;;;2.30;;
16346;SDS011;8283;48.504;13.734;2022-12-26T06:54:12;2.53;;;1.92;;
16346;SDS011;8283;48.504;13.734;2022-12-26T06:56:56;3.75;;;2.40;;
16346;SDS011;8283;48.504;13.734;2022-12-26T06:59:41;6.15;;;2.90;;
16346;SDS011;8283;48.504;13.734;2022-12-26T07:02:25;5.72;;;3.47;;
16346;SDS011;8283;48.504;13.734;2022-12-26T07:05:09;6.25;;;3.13;;
16346;SDS011;8283;48.504;13.734;2022-12-26T07:07:53;9.95;;;5.82;;
16346;SDS011;8283;48.504;13.734;2022-12-26T07:10:38;20.42;;;11.13;;
16346;SDS011;8283;48.504;13.734;2022-12-26T07:13:22;29.55;;;14.50;;
16346;SDS011;8283;48.504;13.734;2022-12-26T07:16:06;53.08;;;27.88;;
16346;SDS011;8283;48.504;13.734;2022-12-26T07:18:51;12.00;;;5.68;;
16346;SDS011;8283;48.504;13.734;2022-12-26T07:21:37;6.28;;;4.45;;
16346;SDS011;8283;48.504;13.734;2022-12-26T07:24:21;5.50;;;3.72;;
16346;SDS011;8283;48.504;13.734;2022-12-26T07:27:06;2.88;;;2.35;;
16346;SDS011;8283;48.504;13.734;2022-12-26T07:29:50;4.10;;;2.53;;
16346;SDS011;8283;48.504;13.734;2022-12-26T07:32:34;3.47;;;2.53;;
16346;SDS011;8283;48.504;13.734;2022-12-26T07:35:18;2.42;;;2.22;;
16346;SDS011;8283;48.504;13.734;2022-12-26T07:38:03;2.13;;;1.92;;
16346;SDS011;8283;48.504;13.734;2022-12-26T07:40:47;2.15;;;1.92;;
16346;SDS011;8283;48.504;13.734;2022-12-26T07:43:31;2.85;;;1.90;;
16346;SDS011;8283;48.504;13.734;2022-12-26T07:46:15;1.92;;;1.65;;
16346;SDS011;8283;48.504;13.734;2022-12-26T07:49:00;2.60;;;2.03;;
16346;SDS011;8283;48.504;13.734;2022-12-26T07:51:44;2.10;;;1.90;;
16346;SDS011;8283;48.504;13.734;2022-12-26T07:54:29;2.00;;;1.80;;
16346;SDS011;8283;48.504;13.734;2022-12-26T07:57:15;4.05;;;1.60;;
16346;SDS011;8283;48.504;13.734;2022-12-26T07:59:59;3.53;;;2.63;;
16346;SDS011;8283;48.504;13.734;2022-12-26T08:02:44;4.72;;;4.22;;
16346;SDS011;8283;48.504;13.734;2022-12-26T08:05:32;2.75;;;2.42;;
16346;SDS011;8283;48.504;13.734;2022-12-26T08:08:16;4.13;;;2.38;;
16346;SDS011;8283;48.504;13.734;2022-12-26T08:11:01;3.83;;;2.55;;
16346;SDS011;8283;48.504;13.734;2022-12-26T08:13:48;3.00;;;2.70;;
16346;SDS011;8283;48.504;13.734;2022-12-26T08:16:33;2.92;;;2.22;;
16346;SDS011;8283;48.504;13.734;2022-12-26T08:19:17;2.35;;;1.98;;
16346;SDS011;8283;48.504;13.734;2022-12-26T08:22:02;2.20;;;1.83;;
16346;SDS011;8283;48.504;13.734;2022-12-26T08:24:47;4.80;;;2.22;;
16346;SDS011;8283;48.504;13.734;2022-12-26T08:27:32;3.53;;;2.20;;
16346;SDS011;8283;48.504;13.734;2022-12-26T08:30:16;5.25;;;2.60;;
16346;SDS011;8283;48.504;13.734;2022-12-26T08:33:00;2.78;;;2.13;;
16346;SDS011;8283;48.504;13.734;2022-12-26T08:35:45;3.80;;;2.10;;
16346;SDS011;8283;48.504;13.734;2022-12-26T08:38:30;5.30;;;1.80;;
16346;SDS011;8283;48.504;13.734;2022-12-26T08:41:14;4.45;;;2.22;;
16346;SDS011;8283;48.504;13.734;2022-12-26T08:44:00;2.22;;;1.80;;
16346;SDS011;8283;48.504;13.734;2022-12-26T08:46:44;5.93;;;1.98;;
16346;SDS011;8283;48.504;13.734;2022-12-26T08:49:29;4.18;;;2.30;;
16346;SDS011;8283;48.504;13.734;2022-12-26T08:52:13;7.15;;;2.05;;
16346;SDS011;8283;48.504;13.734;2022-12-26T08:54:58;3.03;;;2.50;;
16346;SDS011;8283;48.504;13.734;2022-12-26T08:57:42;3.38;;;2.58;;
16346;SDS011;8283;48.504;13.734;2022-12-26T09:00:26;6.18;;;2.15;;
16346;SDS011;8283;48.504;13.734;2022-12-26T09:03:10;3.75;;;2.50;;
16346;SDS011;8283;48.504;13.734;2022-12-26T09:05:57;2.40;;;2.17;;
16346;SDS011;8283;48.504;13.734;2022-12-26T09:08:43;3.88;;;2.22;;
16346;SDS011;8283;48.504;13.734;2022-12-26T09:11:27;3.70;;;2.55;;
16346;SDS011;8283;48.504;13.734;2022-12-26T09:14:12;3.63;;;2.78;;
16346;SDS011;8283;48.504;13.734;2022-12-26T09:16:57;3.13;;;2.15;;
16346;SDS011;8283;48.504;13.734;2022-12-26T09:19:41;6.00;;;2.40;;
16346;SDS011;8283;48.504;13.734;2022-12-26T09:22:27;2.90;;;2.60;;
16346;SDS011;8283;48.504;13.734;2022-12-26T09:25:30;2.95;;;2.50;;
16346;SDS011;8283;48.504;13.734;2022-12-26T09:28:15;3.65;;;2.40;;
16346;SDS011;8283;48.504;13.734;2022-12-26T09:31:03;5.28;;;2.67;;
16346;SDS011;8283;48.504;13.734;2022-12-26T09:33:49;5.03;;;2.38;;
16346;SDS011;8283;48.504;13.734;2022-12-26T09:36:36;4.75;;;2.10;;
16346;SDS011;8283;48.504;13.734;2022-12-26T09:39:21;5.72;;;3.22;;
16346;SDS011;8283;48.504;13.734;2022-12-26T09:45:13;4.30;;;2.35;;
16346;SDS011;8283;48.504;13.734;2022-12-26T09:48:03;3.03;;;2.30;;
16346;SDS011;8283;48.504;13.734;2022-12-26T09:50:55;3.15;;;2.85;;
16346;SDS011;8283;48.504;13.734;2022-12-26T09:53:40;3.47;;;2.25;;
16346;SDS011;8283;48.504;13.734;2022-12-26T09:56:26;2.58;;;2.38;;
16346;SDS011;8283;48.504;13.734;2022-12-26T09:59:14;3.33;;;2.42;;
16346;SDS011;8283;48.504;13.734;2022-12-26T10:02:01;5.55;;;2.53;;
16346;SDS011;8283;48.504;13.734;2022-12-26T10:04:47;2.90;;;2.50;;
16346;SDS011;8283;48.504;13.734;2022-12-26T10:11:14;2.38;;;2.10;;
16346;SDS011;8283;48.504;13.734;2022-12-26T10:14:08;3.15;;;2.85;;
16346;SDS011;8283;48.504;13.734;2022-12-26T10:20:12;3.00;;;2.70;;
16346;SDS011;8283;48.504;13.734;2022-12-26T10:23:12;3.10;;;2.80;;
16346;SDS011;8283;48.504;13.734;2022-12-26T10:26:08;3.22;;;2.92;;
16346;SDS011;8283;48.504;13.734;2022-12-26T10:31:51;3.55;;;3.15;;
16346;SDS011;8283;48.504;13.734;2022-12-26T10:34:57;3.38;;;2.50;;
16346;SDS011;8283;48.504;13.734;2022-12-26T10:37:42;4.20;;;3.00;;
16346;SDS011;8283;48.504;13.734;2022-12-26T10:40:33;3.25;;;2.55;;
16346;SDS011;8283;48.504;13.734;2022-12-26T10:49:23;2.92;;;2.45;;
16346;SDS011;8283;48.504;13.734;2022-12-26T10:52:09;3.42;;;2.75;;
16346;SDS011;8283;48.504;13.734;2022-12-26T10:54:56;5.97;;;2.60;;
16346;SDS011;8283;48.504;13.734;2022-12-26T10:57:43;2.65;;;2.45;;
16346;SDS011;8283;48.504;13.734;2022-12-26T11:00:30;3.55;;;2.90;;
16346;SDS011;8283;48.504;13.734;2022-12-26T11:03:17;3.25;;;2.72;;
16346;SDS011;8283;48.504;13.734;2022-12-26T11:06:03;2.80;;;2.50;;
16346;SDS011;8283;48.504;13.734;2022-12-26T11:08:49;2.83;;;2.60;;
16346;SDS011;8283;48.504;13.734;2022-12-26T11:11:34;2.70;;;2.25;;
16346;SDS011;8283;48.504;13.734;2022-12-26T11:17:30;2.33;;;2.10;;
16346;SDS011;8283;48.504;13.734;2022-12-26T11:23:23;2.40;;;2.20;;
16346;SDS011;8283;48.504;13.734;2022-12-26T11:26:24;2.70;;;2.45;;
16346;SDS011;8283;48.504;13.734;2022-12-26T11:29:18;2.67;;;2.45;;
16346;SDS011;8283;48.504;13.734;2022-12-26T11:32:03;3.22;;;2.47;;
16346;SDS011;8283;48.504;13.734;2022-12-26T11:34:48;3.65;;;2.80;;
16346;SDS011;8283;48.504;13.734;2022-12-26T11:37:36;2.90;;;2.47;;
16346;SDS011;8283;48.504;13.734;2022-12-26T11:40:30;2.85;;;2.38;;
16346;SDS011;8283;48.504;13.734;2022-12-26T11:43:22;3.15;;;2.38;;
16346;SDS011;8283;48.504;13.734;2022-12-26T11:46:08;3.58;;;2.53;;
16346;SDS011;8283;48.504;13.734;2022-12-26T11:48:52;3.35;;;2.75;;
16346;SDS011;8283;48.504;13.734;2022-12-26T11:51:38;2.83;;;2.50;;
16346;SDS011;8283;48.504;13.734;2022-12-26T11:57:17;2.90;;;2.45;;
16346;SDS011;8283;48.504;13.734;2022-12-26T12:00:17;3.22;;;2.92;;
16346;SDS011;8283;48.504;13.734;2022-12-26T12:03:09;2.90;;;2.25;;
16346;SDS011;8283;48.504;13.734;2022-12-26T12:15:08;2.80;;;2.30;;
16346;SDS011;8283;48.504;13.734;2022-12-26T12:24:26;3.20;;;2.75;;
16346;SDS011;8283;48.504;13.734;2022-12-26T12:27:40;4.05;;;2.80;;
16346;SDS011;8283;48.504;13.734;2022-12-26T12:46:34;2.55;;;2.35;;
16346;SDS011;8283;48.504;13.734;2022-12-26T12:49:48;2.95;;;2.60;;
16346;SDS011;8283;48.504;13.734;2022-12-26T13:01:45;3.00;;;2.47;;
16346;SDS011;8283;48.504;13.734;2022-12-26T13:04:33;2.78;;;2.42;;
16346;SDS011;8283;48.504;13.734;2022-12-26T13:07:24;2.67;;;2.47;;
16346;SDS011;8283;48.504;13.734;2022-12-26T13:10:25;2.47;;;2.28;;
16346;SDS011;8283;48.504;13.734;2022-12-26T13:13:30;3.88;;;3.00;;
16346;SDS011;8283;48.504;13.734;2022-12-26T13:16:27;3.53;;;2.53;;
16346;SDS011;8283;48.504;13.734;2022-12-26T13:19:59;3.10;;;2.70;;
16346;SDS011;8283;48.504;13.734;2022-12-26T13:22:37;5.72;;;3.83;;
16346;SDS011;8283;48.504;13.734;2022-12-26T13:25:43;6.70;;;4.50;;
16346;SDS011;8283;48.504;13.734;2022-12-26T13:28:33;4.57;;;3.40;;
16346;SDS011;8283;48.504;13.734;2022-12-26T13:31:30;4.32;;;3.38;;
16346;SDS011;8283;48.504;13.734;2022-12-26T13:37:02;6.20;;;3.17;;
16346;SDS011;8283;48.504;13.734;2022-12-26T13:39:46;4.78;;;3.40;;
16346;SDS011;8283;48.504;13.734;2022-12-26T13:42:36;3.70;;;3.30;;
16346;SDS011;8283;48.504;13.734;2022-12-26T13:51:55;3.35;;;3.05;;
16346;SDS011;8283;48.504;13.734;2022-12-26T13:54:33;3.67;;;3.03;;
16346;SDS011;8283;48.504;13.734;2022-12-26T14:00:24;4.28;;;3.10;;
16346;SDS011;8283;48.504;13.734;2022-12-26T14:10:14;5.35;;;4.05;;
16346;SDS011;8283;48.504;13.734;2022-12-26T14:16:26;6.85;;;5.28;;
16346;SDS011;8283;48.504;13.734;2022-12-26T14:22:40;7.07;;;4.32;;
16346;SDS011;8283;48.504;13.734;2022-12-26T14:41:04;4.03;;;3.53;;
16346;SDS011;8283;48.504;13.734;2022-12-26T14:44:39;4.68;;;3.97;;
16346;SDS011;8283;48.504;13.734;2022-12-26T14:50:39;5.78;;;3.83;;
16346;SDS011;8283;48.504;13.734;2022-12-26T14:53:32;5.53;;;4.45;;
16346;SDS011;8283;48.504;13.734;2022-12-26T14:59:23;7.95;;;5.75;;
16346;SDS011;8283;48.504;13.734;2022-12-26T15:14:04;8.70;;;5.80;;
16346;SDS011;8283;48.504;13.734;2022-12-26T15:17:19;11.32;;;7.03;;
16346;SDS011;8283;48.504;13.734;2022-12-26T15:23:23;9.02;;;6.30;;
16346;SDS011;8283;48.504;13.734;2022-12-26T15:35:35;8.23;;;5.28;;
16346;SDS011;8283;48.504;13.734;2022-12-26T15:38:35;5.97;;;4.80;;
16346;SDS011;8283;48.504;13.734;2022-12-26T15:57:03;12.57;;;7.60;;
16346;SDS011;8283;48.504;13.734;2022-12-26T16:00:13;14.25;;;6.40;;
16346;SDS011;8283;48.504;13.734;2022-12-26T16:09:44;9.55;;;7.40;;
16346;SDS011;8283;48.504;13.734;2022-12-26T16:12:31;15.48;;;8.65;;
16346;SDS011;8283;48.504;13.734;2022-12-26T16:15:17;9.15;;;6.07;;
16346;SDS011;8283;48.504;13.734;2022-12-26T16:18:11;8.27;;;5.20;;
16346;SDS011;8283;48.504;13.734;2022-12-26T16:20:58;5.78;;;4.10;;
16346;SDS011;8283;48.504;13.734;2022-12-26T16:24:08;4.70;;;3.50;;
16346;SDS011;8283;48.504;13.734;2022-12-26T16:26:55;6.93;;;3.70;;
16346;SDS011;8283;48.504;13.734;2022-12-26T16:29:45;5.70;;;3.58;;
16346;SDS011;8283;48.504;13.734;2022-12-26T16:32:40;5.50;;;3.58;;
16346;SDS011;8283;48.504;13.734;2022-12-26T16:35:33;8.80;;;4.78;;
16346;SDS011;8283;48.504;13.734;2022-12-26T16:38:22;3.65;;;3.17;;
16346;SDS011;8283;48.504;13.734;2022-12-26T16:41:50;4.20;;;3.45;;
16346;SDS011;8283;48.504;13.734;2022-12-26T16:44:40;5.90;;;3.30;;
16346;SDS011;8283;48.504;13.734;2022-12-26T16:47:27;6.45;;;4.30;;
16346;SDS011;8283;48.504;13.734;2022-12-26T16:50:24;4.15;;;3.53;;
16346;SDS011;8283;48.504;13.734;2022-12-26T16:53:12;5.70;;;4.28;;
16346;SDS011;8283;48.504;13.734;2022-12-26T16:56:12;3.97;;;3.10;;
16346;SDS011;8283;48.504;13.734;2022-12-26T16:59:02;5.93;;;4.50;;
16346;SDS011;8283;48.504;13.734;2022-12-26T17:01:55;4.20;;;2.83;;
16346;SDS011;8283;48.504;13.734;2022-12-26T17:04:46;5.18;;;3.13;;
16346;SDS011;8283;48.504;13.734;2022-12-26T17:07:38;3.80;;;2.92;;
16346;SDS011;8283;48.504;13.734;2022-12-26T17:10:31;3.95;;;3.15;;
16346;SDS011;8283;48.504;13.734;2022-12-26T17:13:20;3.25;;;2.58;;
16346;SDS011;8283;48.504;13.734;2022-12-26T17:16:07;3.35;;;2.90;;
16346;SDS011;8283;48.504;13.734;2022-12-26T17:19:39;4.10;;;3.42;;
16346;SDS011;8283;48.504;13.734;2022-12-26T17:25:31;5.30;;;3.58;;
16346;SDS011;8283;48.504;13.734;2022-12-26T17:28:20;4.45;;;3.63;;
16346;SDS011;8283;48.504;13.734;2022-12-26T17:31:16;4.55;;;3.22;;
16346;SDS011;8283;48.504;13.734;2022-12-26T17:34:14;16.60;;;9.77;;
16346;SDS011;8283;48.504;13.734;2022-12-26T17:43:19;4.55;;;3.70;;
16346;SDS011;8283;48.504;13.734;2022-12-26T17:46:07;5.05;;;3.13;;
16346;SDS011;8283;48.504;13.734;2022-12-26T17:48:56;6.47;;;3.50;;
16346;SDS011;8283;48.504;13.734;2022-12-26T17:51:40;5.00;;;3.50;;
16346;SDS011;8283;48.504;13.734;2022-12-26T17:54:24;3.35;;;2.88;;
16346;SDS011;8283;48.504;13.734;2022-12-26T17:57:14;3.20;;;2.70;;
16346;SDS011;8283;48.504;13.734;2022-12-26T18:00:20;3.75;;;3.17;;
16346;SDS011;8283;48.504;13.734;2022-12-26T18:03:06;4.95;;;2.80;;
16346;SDS011;8283;48.504;13.734;2022-12-26T18:05:51;3.78;;;3.05;;
16346;SDS011;8283;48.504;13.734;2022-12-26T18:08:39;2.85;;;2.28;;
16346;SDS011;8283;48.504;13.734;2022-12-26T18:11:24;4.57;;;3.42;;
16346;SDS011;8283;48.504;13.734;2022-12-26T18:14:11;4.57;;;3.33;;
16346;SDS011;8283;48.504;13.734;2022-12-26T18:16:56;5.10;;;2.67;;
16346;SDS011;8283;48.504;13.734;2022-12-26T18:19:43;2.88;;;2.47;;
16346;SDS011;8283;48.504;13.734;2022-12-26T18:22:28;4.63;;;3.67;;
16346;SDS011;8283;48.504;13.734;2022-12-26T18:25:14;4.82;;;4.05;;
16346;SDS011;8283;48.504;13.734;2022-12-26T18:28:00;5.32;;;3.35;;
16346;SDS011;8283;48.504;13.734;2022-12-26T18:30:44;3.83;;;2.85;;
16346;SDS011;8283;48.504;13.734;2022-12-26T18:33:29;2.80;;;2.40;;
16346;SDS011;8283;48.504;13.734;2022-12-26T18:36:14;3.00;;;2.35;;
16346;SDS011;8283;48.504;13.734;2022-12-26T18:38:59;2.65;;;2.45;;
16346;SDS011;8283;48.504;13.734;2022-12-26T18:41:45;4.07;;;2.28;;
16346;SDS011;8283;48.504;13.734;2022-12-26T18:44:29;2.10;;;1.90;;
16346;SDS011;8283;48.504;13.734;2022-12-26T18:47:14;6.10;;;4.28;;
16346;SDS011;8283;48.504;13.734;2022-12-26T18:50:00;7.55;;;4.95;;
16346;SDS011;8283;48.504;13.734;2022-12-26T18:52:44;7.60;;;4.95;;
16346;SDS011;8283;48.504;13.734;2022-12-26T18:55:28;7.57;;;4.28;;
16346;SDS011;8283;48.504;13.734;2022-12-26T18:58:13;9.77;;;5.70;;
16346;SDS011;8283;48.504;13.734;2022-12-26T19:00:59;4.18;;;2.78;;
16346;SDS011;8283;48.504;13.734;2022-12-26T19:03:44;3.67;;;2.25;;
16346;SDS011;8283;48.504;13.734;2022-12-26T19:06:29;3.03;;;2.40;;
16346;SDS011;8283;48.504;13.734;2022-12-26T19:09:17;2.50;;;2.03;;
16346;SDS011;8283;48.504;13.734;2022-12-26T19:12:02;2.67;;;2.40;;
16346;SDS011;8283;48.504;13.734;2022-12-26T19:14:47;2.40;;;1.92;;
16346;SDS011;8283;48.504;13.734;2022-12-26T19:17:31;2.17;;;1.98;;
16346;SDS011;8283;48.504;13.734;2022-12-26T19:20:18;2.42;;;2.10;;
16346;SDS011;8283;48.504;13.734;2022-12-26T19:23:04;2.60;;;2.03;;
16346;SDS011;8283;48.504;13.734;2022-12-26T19:25:48;3.13;;;2.50;;
16346;SDS011;8283;48.504;13.734;2022-12-26T19:28:32;4.18;;;3.17;;
16346;SDS011;8283;48.504;13.734;2022-12-26T19:31:17;4.65;;;2.03;;
16346;SDS011;8283;48.504;13.734;2022-12-26T19:34:02;4.75;;;2.50;;
16346;SDS011;8283;48.504;13.734;2022-12-26T19:36:46;2.78;;;2.05;;
16346;SDS011;8283;48.504;13.734;2022-12-26T19:39:31;2.40;;;1.80;;
16346;SDS011;8283;48.504;13.734;2022-12-26T19:42:16;2.05;;;1.48;;
16346;SDS011;8283;48.504;13.734;2022-12-26T19:45:00;1.95;;;1.45;;
16346;SDS011;8283;48.504;13.734;2022-12-26T19:47:44;2.13;;;1.70;;
16346;SDS011;8283;48.504;13.734;2022-12-26T19:50:29;2.58;;;1.45;;
16346;SDS011;8283;48.504;13.734;2022-12-26T19:53:13;2.00;;;1.48;;
16346;SDS011;8283;48.504;13.734;2022-12-26T19:55:58;1.85;;;1.33;;
16346;SDS011;8283;48.504;13.734;2022-12-26T19:58:42;1.70;;;1.20;;
16346;SDS011;8283;48.504;13.734;2022-12-26T20:01:27;1.40;;;1.30;;
16346;SDS011;8283;48.504;13.734;2022-12-26T20:04:13;2.42;;;1.17;;
16346;SDS011;8283;48.504;13.734;2022-12-26T20:06:58;0.80;;;0.73;;
16346;SDS011;8283;48.504;13.734;2022-12-26T20:09:43;1.17;;;1.00;;
16346;SDS011;8283;48.504;13.734;2022-12-26T20:12:27;1.25;;;1.13;;
16346;SDS011;8283;48.504;13.734;2022-12-26T20:15:11;1.13;;;1.00;;
16346;SDS011;8283;48.504;13.734;2022-12-26T20:17:56;3.83;;;1.17;;
16346;SDS011;8283;48.504;13.734;2022-12-26T20:20:40;1.23;;;1.13;;
16346;SDS011;8283;48.504;13.734;2022-12-26T20:23:24;1.10;;;1.00;;
16346;SDS011;8283;48.504;13.734;2022-12-26T20:26:19;1.00;;;0.90;;
16346;SDS011;8283;48.504;13.734;2022-12-26T20:29:06;2.97;;;2.67;;
16346;SDS011;8283;48.504;13.734;2022-12-26T20:31:51;2.80;;;2.35;;
16346;SDS011;8283;48.504;13.734;2022-12-26T20:34:38;1.73;;;1.48;;
16346;SDS011;8283;48.504;13.734;2022-12-26T20:37:22;3.05;;;2.35;;